Time;durP1;ratioP1;P1;durP2;ratioP2;P2;SDS_P1;SDS_P2;PMS_P1;PMS_P2;Temp;Humidity;BMP_temperature;BMP_pressure;BME280_temperature;BME280_humidity;BME280_pressure;Samples;Min_cycle;Max_cycle;Signal;HPM_P1;HPM_P2
2023/06/24 00:40:25;;;;;;;;;;;28.20;99.90;;;;;;5115810;27;19945;-67
2023/06/24 00:42:52;;;;;;;;;;;28.10;99.90;;;;;;5111592;28;19974;-66
2023/06/24 00:45:18;;;;;;;;;;;28.20;99.90;;;;;;5111333;28;19917;-67
2023/06/24 00:47:45;;;;;;;;;;;28.40;99.90;;;;;;5110935;28;19966;-67
2023/06/24 00:50:14;;;;;;;;;;;28.50;99.90;;;;;;5103233;28;19935;-67
2023/06/24 00:52:43;;;;;;;;;;;28.60;99.90;;;;;;5111308;28;19918;-67
2023/06/24 00:55:12;;;;;;;;;;;28.80;99.90;;;;;;5111519;28;19946;-69
2023/06/24 00:57:39;;;;;;;;;;;28.90;99.90;;;;;;5106951;28;20287;-67
2023/06/24 01:00:10;;;;;;;;;;;29.10;99.90;;;;;;5100154;28;20020;-68
2023/06/24 01:02:36;;;;;;;;;;;29.20;99.90;;;;;;5103208;28;20313;-67
2023/06/24 01:05:04;;;;;;;;;;;29.20;99.90;;;;;;5093516;28;19936;-70
2023/06/24 01:07:31;;;;;;;;;;;29.40;99.90;;;;;;5090801;28;19935;-70
2023/06/24 01:09:57;;;;;;;;;;;29.40;99.90;;;;;;5090836;28;20015;-69
2023/06/24 01:12:23;;;;;;;;;;;29.30;99.90;;;;;;5102951;28;19936;-69
2023/06/24 01:14:50;;;;;;;;;;;29.60;99.90;;;;;;5110846;28;19933;-70
2023/06/24 01:17:19;;;;;;;;;;;29.50;99.90;;;;;;5111110;28;19945;-68
2023/06/24 01:20:18;;;;;;;;;;;29.70;99.90;;;;;;5110802;28;20006;-69
2023/06/24 01:22:47;;;;;;;;;;;29.60;99.90;;;;;;5098702;28;19934;-69
2023/06/24 01:25:22;;;;;;;;;;;29.80;99.90;;;;;;5111019;28;19932;-68
2023/06/24 01:28:04;;;;;;;;;;;29.80;99.90;;;;;;5109529;28;19951;-69
2023/06/24 01:30:54;;;;;;;;;;;29.80;99.90;;;;;;5110704;28;19927;-69
2023/06/24 01:33:25;;;;;;;;;;;29.80;99.90;;;;;;5110129;28;19931;-69
2023/06/24 01:35:51;;;;;;;;;;;29.90;99.90;;;;;;5110546;28;19933;-69
2023/06/24 01:38:27;;;;;;;;;;;29.90;99.90;;;;;;5113744;28;19967;-69
2023/06/24 01:40:54;;;;;;;;;;;30.00;99.90;;;;;;5131105;28;19945;-68
2023/06/24 01:43:23;;;;;;;;;;;30.10;99.90;;;;;;5131176;28;20071;-68
2023/06/24 01:45:51;;;;;;;;;;;30.20;99.90;;;;;;5131307;28;19976;-69
2023/06/24 01:48:24;;;;;;;;;;;30.20;99.90;;;;;;5130806;28;19952;-69
2023/06/24 01:51:00;;;;;;;;;;;30.10;99.90;;;;;;5122246;28;19928;-69
2023/06/24 01:53:32;;;;;;;;;;;30.30;99.90;;;;;;5117246;28;19967;-70
2023/06/24 01:56:00;;;;;;;;;;;30.30;99.90;;;;;;5117259;28;20399;-69
2023/06/24 01:58:26;;;;;;;;;;;30.40;99.90;;;;;;5116991;28;20313;-69
2023/06/24 02:00:53;;;;;;;;;;;30.30;99.90;;;;;;5116907;28;19929;-68
2023/06/24 02:03:20;;;;;;;;;;;30.40;99.90;;;;;;5098673;28;20388;-68
2023/06/24 02:05:47;;;;;;;;;;;30.40;99.90;;;;;;5116954;28;19934;-68
2023/06/24 02:08:14;;;;;;;;;;;30.40;99.90;;;;;;5116681;28;19940;-68
2023/06/24 02:10:44;;;;;;;;;;;30.50;99.90;;;;;;5116757;28;19931;-69
2023/06/24 02:13:11;;;;;;;;;;;30.40;99.90;;;;;;5116899;28;19984;-69
2023/06/24 02:15:38;;;;;;;;;;;30.40;99.90;;;;;;5116543;28;20052;-69
2023/06/24 02:18:05;;;;;;;;;;;30.50;99.90;;;;;;5116621;28;19940;-68
2023/06/24 02:20:31;;;;;;;;;;;30.70;99.90;;;;;;5104760;28;19951;-68
2023/06/24 02:22:59;;;;;;;;;;;30.70;99.90;;;;;;5096021;28;20383;-67
2023/06/24 02:25:26;;;;;;;;;;;30.70;99.90;;;;;;5096397;28;19982;-69
2023/06/24 02:27:53;;;;;;;;;;;30.80;99.90;;;;;;5094046;28;19941;-69
2023/06/24 02:30:20;;;;;;;;;;;30.70;99.90;;;;;;5116889;28;20290;-68
2023/06/24 02:32:46;;;;;;;;;;;30.80;99.90;;;;;;5118772;28;19935;-68
2023/06/24 02:35:13;;;;;;;;;;;30.70;99.90;;;;;;5117941;28;19939;-67
2023/06/24 02:37:39;;;;;;;;;;;30.70;99.90;;;;;;5117895;28;19958;-69
2023/06/24 02:40:07;;;;;;;;;;;30.80;99.90;;;;;;5105529;28;20433;-66
2023/06/24 02:42:33;;;;;;;;;;;30.70;99.90;;;;;;5096835;28;20016;-68
2023/06/24 02:44:59;;;;;;;;;;;30.70;99.90;;;;;;5099521;28;19931;-68
2023/06/24 02:47:26;;;;;;;;;;;30.70;99.90;;;;;;5095524;28;19921;-69
2023/06/24 02:49:52;;;;;;;;;;;30.80;99.90;;;;;;5095518;28;20036;-68
2023/06/24 02:52:19;;;;;;;;;;;30.80;99.90;;;;;;5095253;28;19981;-69
2023/06/24 02:54:46;;;;;;;;;;;30.80;99.90;;;;;;5095139;28;19923;-68
2023/06/24 02:57:14;;;;;;;;;;;30.80;99.90;;;;;;5095362;28;19957;-69
2023/06/24 02:59:40;;;;;;;;;;;30.90;99.90;;;;;;5095264;28;20039;-69
2023/06/24 03:02:06;;;;;;;;;;;31.00;99.90;;;;;;5094211;28;19982;-69
2023/06/24 03:04:32;;;;;;;;;;;30.90;99.90;;;;;;5095012;28;20026;-68
2023/06/24 03:06:59;;;;;;;;;;;31.10;99.90;;;;;;5094630;28;19990;-70
2023/06/24 03:09:35;;;;;;;;;;;31.10;99.90;;;;;;5094067;28;20411;-68
2023/06/24 03:12:01;;;;;;;;;;;31.20;99.90;;;;;;5094314;28;19940;-72
2023/06/24 03:14:27;;;;;;;;;;;31.30;99.90;;;;;;5094996;28;20242;-68
2023/06/24 03:16:53;;;;;;;;;;;31.40;99.90;;;;;;5074979;28;20315;-69
2023/06/24 03:19:19;;;;;;;;;;;31.50;99.90;;;;;;5093411;28;20411;-69
2023/06/24 03:21:45;;;;;;;;;;;31.50;99.90;;;;;;5094198;28;19938;-70
2023/06/24 03:24:12;;;;;;;;;;;31.50;99.90;;;;;;5093794;28;19945;-69
2023/06/24 03:26:39;;;;;;;;;;;31.50;99.90;;;;;;5094258;28;19931;-70
2023/06/24 03:29:07;;;;;;;;;;;31.50;99.90;;;;;;5095220;28;20274;-70
2023/06/24 03:31:33;;;;;;;;;;;31.60;99.90;;;;;;5094607;28;20568;-70
2023/06/24 03:33:59;;;;;;;;;;;31.70;99.90;;;;;;5094918;28;19954;-70
2023/06/24 03:36:26;;;;;;;;;;;31.70;99.90;;;;;;5094685;28;19940;-70
2023/06/24 03:38:52;;;;;;;;;;;31.70;99.90;;;;;;5095341;28;19970;-70
2023/06/24 03:41:18;;;;;;;;;;;31.70;99.90;;;;;;5095309;28;20063;-69
2023/06/24 03:43:44;;;;;;;;;;;31.70;99.90;;;;;;5095919;28;20422;-70
2023/06/24 03:46:14;;;;;;;;;;;31.80;99.90;;;;;;5077514;28;19943;-70
2023/06/24 03:48:40;;;;;;;;;;;31.90;99.90;;;;;;5095365;28;19994;-70
2023/06/24 03:51:06;;;;;;;;;;;32.00;99.90;;;;;;5109025;28;19939;-70
2023/06/24 03:53:33;;;;;;;;;;;32.10;99.90;;;;;;5115047;28;20345;-70
2023/06/24 03:55:59;;;;;;;;;;;32.10;99.90;;;;;;5094806;28;19955;-68
2023/06/24 03:58:25;;;;;;;;;;;32.10;99.90;;;;;;5095288;28;19946;-67
2023/06/24 04:00:51;;;;;;;;;;;32.10;99.90;;;;;;5094309;28;19932;-68
2023/06/24 04:03:18;;;;;;;;;;;32.10;99.90;;;;;;5095364;28;19977;-67
2023/06/24 04:05:44;;;;;;;;;;;32.20;99.90;;;;;;5094833;28;19931;-67
2023/06/24 04:08:10;;;;;;;;;;;32.30;99.90;;;;;;5093655;28;20330;-67
2023/06/24 04:10:37;;;;;;;;;;;32.30;99.90;;;;;;5094442;28;19928;-71
2023/06/24 04:13:03;;;;;;;;;;;32.40;99.90;;;;;;5095424;28;19938;-70
2023/06/24 04:15:29;;;;;;;;;;;32.40;99.90;;;;;;5099222;28;19942;-66
2023/06/24 04:17:55;;;;;;;;;;;32.40;99.90;;;;;;5094054;28;19931;-69
2023/06/24 04:20:21;;;;;;;;;;;32.40;99.90;;;;;;5097564;28;20001;-72
2023/06/24 04:22:47;;;;;;;;;;;32.50;99.90;;;;;;5075883;28;19933;-70
2023/06/24 04:25:13;;;;;;;;;;;32.50;99.90;;;;;;5093852;28;19942;-69
2023/06/24 04:27:40;;;;;;;;;;;32.50;99.90;;;;;;5094276;28;19982;-69
2023/06/24 04:30:06;;;;;;;;;;;32.60;99.90;;;;;;5093527;28;19994;-69
2023/06/24 04:32:32;;;;;;;;;;;32.60;99.90;;;;;;5095105;28;19938;-70
2023/06/24 04:35:01;;;;;;;;;;;32.70;99.90;;;;;;5093766;28;20383;-72
2023/06/24 04:37:27;;;;;;;;;;;32.70;99.90;;;;;;5101435;28;20195;-70
2023/06/24 04:39:54;;;;;;;;;;;32.80;99.90;;;;;;5095114;28;19975;-70
2023/06/24 04:42:20;;;;;;;;;;;32.80;99.90;;;;;;5094844;28;20053;-71
2023/06/24 04:44:51;;;;;;;;;;;32.70;99.90;;;;;;5094147;28;19936;-71
2023/06/24 04:47:17;;;;;;;;;;;32.70;99.90;;;;;;5094179;28;20020;-68
2023/06/24 04:49:44;;;;;;;;;;;32.70;99.90;;;;;;5094557;28;19939;-67
2023/06/24 04:52:11;;;;;;;;;;;32.80;99.90;;;;;;5094742;28;19940;-69
2023/06/24 04:54:37;;;;;;;;;;;32.90;99.90;;;;;;5094982;28;19944;-68
2023/06/24 04:57:08;;;;;;;;;;;32.90;99.90;;;;;;5094506;28;19994;-68
2023/06/24 04:59:34;;;;;;;;;;;33.00;99.90;;;;;;5076501;28;19989;-69
2023/06/24 05:02:00;;;;;;;;;;;33.10;99.90;;;;;;5094583;28;19931;-69
2023/06/24 05:04:27;;;;;;;;;;;33.10;99.90;;;;;;5088912;28;20233;-70
2023/06/24 05:06:53;;;;;;;;;;;33.10;99.90;;;;;;5094059;28;19970;-70
2023/06/24 05:09:19;;;;;;;;;;;33.10;99.90;;;;;;5093248;28;19967;-68
2023/06/24 05:11:45;;;;;;;;;;;33.30;99.90;;;;;;5091738;28;19979;-67
2023/06/24 05:14:11;;;;;;;;;;;33.30;99.90;;;;;;5082785;28;20029;-67
2023/06/24 05:16:37;;;;;;;;;;;33.30;99.90;;;;;;5082987;28;19939;-68
2023/06/24 05:19:03;;;;;;;;;;;33.20;99.90;;;;;;5093422;28;19952;-67
2023/06/24 05:21:30;;;;;;;;;;;33.20;99.90;;;;;;5093315;28;20030;-69
2023/06/24 05:23:56;;;;;;;;;;;33.30;99.90;;;;;;5083753;28;20479;-65
2023/06/24 05:26:22;;;;;;;;;;;33.30;99.90;;;;;;5093495;28;19951;-66
2023/06/24 05:28:48;;;;;;;;;;;33.30;99.90;;;;;;5092146;28;19940;-67
2023/06/24 05:31:14;;;;;;;;;;;33.30;99.90;;;;;;5095603;28;19932;-66
2023/06/24 05:33:40;;;;;;;;;;;33.30;99.90;;;;;;5097022;28;19933;-67
2023/06/24 05:36:06;;;;;;;;;;;33.20;99.90;;;;;;5096880;28;19928;-67
2023/06/24 05:38:32;;;;;;;;;;;33.30;99.90;;;;;;5096571;28;19959;-66
2023/06/24 05:40:58;;;;;;;;;;;33.40;99.90;;;;;;5096955;28;19936;-67
2023/06/24 05:43:25;;;;;;;;;;;33.30;99.90;;;;;;5096944;28;20329;-67
2023/06/24 05:45:51;;;;;;;;;;;33.40;99.90;;;;;;5097880;28;19986;-66
2023/06/24 05:48:17;;;;;;;;;;;33.60;99.90;;;;;;5096799;28;20265;-66
2023/06/24 05:50:43;;;;;;;;;;;33.60;99.90;;;;;;5096961;28;19947;-66
2023/06/24 05:53:09;;;;;;;;;;;33.60;99.90;;;;;;5097041;28;19962;-66
2023/06/24 05:55:36;;;;;;;;;;;33.60;99.90;;;;;;5095911;28;20389;-66
2023/06/24 05:58:02;;;;;;;;;;;33.60;99.90;;;;;;5097047;28;20451;-65
2023/06/24 07:31:07;;;;;;;;;;;34.10;99.90;;;;;;5088058;28;19957;-65
2023/06/24 07:33:34;;;;;;;;;;;34.10;99.90;;;;;;5089896;28;20391;-66
2023/06/24 07:36:01;;;;;;;;;;;34.20;99.90;;;;;;5070951;28;20347;-66
2023/06/24 07:38:28;;;;;;;;;;;34.40;99.90;;;;;;5102645;28;19929;-65
2023/06/24 07:40:54;;;;;;;;;;;34.50;99.90;;;;;;5089114;28;20369;-65
2023/06/24 07:43:21;;;;;;;;;;;34.60;99.90;;;;;;5088155;28;19981;-66
2023/06/24 07:45:47;;;;;;;;;;;34.60;99.90;;;;;;5088555;28;20438;-65
2023/06/24 07:48:13;;;;;;;;;;;34.60;99.90;;;;;;5088237;28;19932;-66
2023/06/24 07:50:39;;;;;;;;;;;34.70;99.90;;;;;;5087564;28;19958;-66
2023/06/24 07:53:05;;;;;;;;;;;34.70;99.90;;;;;;5084590;28;19947;-66
2023/06/24 07:55:32;;;;;;;;;;;34.80;99.90;;;;;;5094164;28;20016;-67
2023/06/24 07:58:02;;;;;;;;;;;34.80;99.90;;;;;;5084601;28;19928;-66
2023/06/24 08:00:29;;;;;;;;;;;34.80;99.90;;;;;;5076579;28;20361;-66
2023/06/24 08:02:55;;;;;;;;;;;34.80;99.90;;;;;;5084087;28;19913;-66
2023/06/24 08:05:21;;;;;;;;;;;34.90;99.90;;;;;;5085595;28;19920;-65
2023/06/24 08:07:47;;;;;;;;;;;35.00;99.90;;;;;;5081313;28;19923;-67
2023/06/24 08:10:13;;;;;;;;;;;35.10;99.90;;;;;;5090562;28;19912;-67
2023/06/24 08:12:39;;;;;;;;;;;35.10;99.90;;;;;;5090797;28;19996;-67
2023/06/24 08:15:06;;;;;;;;;;;34.90;99.90;;;;;;5090360;28;19964;-68
2023/06/24 08:17:32;;;;;;;;;;;34.90;99.90;;;;;;5090643;28;19961;-69
2023/06/24 08:19:58;;;;;;;;;;;35.00;99.90;;;;;;5090427;28;20415;-70
2023/06/24 08:22:25;;;;;;;;;;;35.00;99.90;;;;;;5090330;28;19915;-70
2023/06/24 08:24:51;;;;;;;;;;;35.00;99.90;;;;;;5089161;28;20357;-68
2023/06/24 08:27:17;;;;;;;;;;;35.00;99.90;;;;;;5090370;28;20356;-68
2023/06/24 08:29:43;;;;;;;;;;;34.90;99.90;;;;;;5099303;28;19922;-69
2023/06/24 08:32:09;;;;;;;;;;;34.90;99.90;;;;;;5110484;28;20364;-69
2023/06/24 08:34:35;;;;;;;;;;;34.90;99.90;;;;;;5110476;28;20375;-70
2023/06/24 08:37:01;;;;;;;;;;;34.90;99.90;;;;;;5110263;28;19912;-70
2023/06/24 08:39:28;;;;;;;;;;;34.90;99.90;;;;;;5110531;28;19944;-69
2023/06/24 08:41:54;;;;;;;;;;;34.90;99.90;;;;;;5086980;28;19912;-68
2023/06/24 08:44:20;;;;;;;;;;;34.90;99.90;;;;;;5078338;28;19913;-72
2023/06/24 08:46:47;;;;;;;;;;;34.80;99.90;;;;;;5076666;28;19947;-68
2023/06/24 08:49:22;;;;;;;;;;;34.90;99.90;;;;;;5076337;28;19923;-70
2023/06/24 08:51:55;;;;;;;;;;;34.90;99.90;;;;;;5076341;28;19916;-69
2023/06/24 08:54:22;;;;;;;;;;;34.80;99.90;;;;;;5077007;28;20265;-70
2023/06/24 08:56:48;;;;;;;;;;;34.70;99.90;;;;;;5076416;28;19912;-69
2023/06/24 08:59:19;;;;;;;;;;;34.70;99.90;;;;;;5076309;28;20421;-69
2023/06/24 09:01:46;;;;;;;;;;;34.70;99.90;;;;;;5076258;28;19951;-69
2023/06/24 09:04:12;;;;;;;;;;;34.60;99.90;;;;;;5076125;28;20104;-69
2023/06/24 09:06:38;;;;;;;;;;;34.70;99.90;;;;;;5075926;28;20407;-70
2023/06/24 09:09:04;;;;;;;;;;;34.70;99.90;;;;;;5076264;28;19916;-69
2023/06/24 09:11:32;;;;;;;;;;;34.70;99.90;;;;;;5075850;28;19908;-69
2023/06/24 09:13:59;;;;;;;;;;;34.60;99.90;;;;;;5075941;28;19908;-70
2023/06/24 09:16:26;;;;;;;;;;;34.70;99.90;;;;;;5075878;28;19909;-69
2023/06/24 09:18:53;;;;;;;;;;;34.60;99.90;;;;;;5075892;28;20257;-70
2023/06/24 09:21:22;;;;;;;;;;;34.60;99.90;;;;;;5077000;28;19914;-69
2023/06/24 09:23:51;;;;;;;;;;;34.50;99.90;;;;;;5075686;28;19919;-69
2023/06/24 09:26:17;;;;;;;;;;;34.50;99.90;;;;;;5075728;28;19916;-69
2023/06/24 09:28:47;;;;;;;;;;;34.50;99.90;;;;;;5076076;28;20183;-70
2023/06/24 09:31:13;;;;;;;;;;;34.50;99.90;;;;;;5075627;28;19908;-70
2023/06/24 09:33:39;;;;;;;;;;;34.60;99.90;;;;;;5075464;28;19908;-68
2023/06/24 09:36:06;;;;;;;;;;;34.50;99.90;;;;;;5075302;28;20002;-70
2023/06/24 09:38:35;;;;;;;;;;;34.50;99.90;;;;;;5075573;28;19909;-69
2023/06/24 09:41:04;;;;;;;;;;;34.50;99.90;;;;;;5075542;28;19928;-69
2023/06/24 09:43:34;;;;;;;;;;;34.50;99.90;;;;;;5082998;28;19920;-70
2023/06/24 09:46:01;;;;;;;;;;;34.50;99.90;;;;;;5077190;28;20417;-71
2023/06/24 09:48:27;;;;;;;;;;;34.50;99.90;;;;;;5075251;28;20292;-70
2023/06/24 09:50:55;;;;;;;;;;;34.50;99.90;;;;;;5074919;28;19967;-69
2023/06/24 09:53:22;;;;;;;;;;;34.50;99.90;;;;;;5074349;28;20016;-71
2023/06/24 09:55:48;;;;;;;;;;;34.50;99.90;;;;;;5075175;28;19954;-70
2023/06/24 09:58:15;;;;;;;;;;;34.50;99.90;;;;;;5077223;28;19949;-70
2023/06/24 10:00:42;;;;;;;;;;;34.40;99.90;;;;;;5092579;28;19919;-68
2023/06/24 10:03:08;;;;;;;;;;;34.40;99.90;;;;;;5076479;28;20447;-69
2023/06/24 10:05:34;;;;;;;;;;;34.40;99.90;;;;;;5080991;28;19918;-68
2023/06/24 10:08:03;;;;;;;;;;;34.40;99.90;;;;;;5076323;28;20394;-72
2023/06/24 10:10:29;;;;;;;;;;;34.30;99.90;;;;;;5074858;28;19919;-70
2023/06/24 10:12:55;;;;;;;;;;;34.20;99.90;;;;;;5074677;28;19909;-69
2023/06/24 10:15:22;;;;;;;;;;;34.20;99.90;;;;;;5075300;28;19985;-68
2023/06/24 10:17:48;;;;;;;;;;;34.20;99.90;;;;;;5074729;28;19951;-68
2023/06/24 10:20:23;;;;;;;;;;;34.10;99.90;;;;;;5074469;28;20288;-71
2023/06/24 10:22:50;;;;;;;;;;;34.10;99.90;;;;;;5074572;28;19915;-69
2023/06/24 10:25:18;;;;;;;;;;;34.10;99.90;;;;;;5074521;28;19958;-71
2023/06/24 10:27:44;;;;;;;;;;;34.00;99.90;;;;;;5074285;28;19909;-70
2023/06/24 10:30:18;;;;;;;;;;;34.00;99.90;;;;;;5074207;28;20359;-68
2023/06/24 10:32:44;;;;;;;;;;;34.00;99.90;;;;;;5074431;28;20237;-70
2023/06/24 10:35:29;;;;;;;;;;;34.00;99.90;;;;;;5074143;28;19962;-70
2023/06/24 10:38:02;;;;;;;;;;;34.00;99.90;;;;;;5076114;28;19923;-71
2023/06/24 10:40:42;;;;;;;;;;;33.90;99.90;;;;;;5094634;28;19916;-71
2023/06/24 10:43:23;;;;;;;;;;;33.90;99.90;;;;;;5090335;28;20026;-71
2023/06/24 10:45:53;;;;;;;;;;;33.80;99.90;;;;;;5082356;28;19946;-71
2023/06/24 10:48:20;;;;;;;;;;;33.80;99.90;;;;;;5077329;28;19973;-70
2023/06/24 10:50:46;;;;;;;;;;;33.70;99.90;;;;;;5086055;28;20318;-69
2023/06/24 10:53:13;;;;;;;;;;;33.70;99.90;;;;;;5094381;28;19923;-68
2023/06/24 10:55:39;;;;;;;;;;;33.70;99.90;;;;;;5094220;28;19991;-69
2023/06/24 10:58:10;;;;;;;;;;;33.70;99.90;;;;;;5085500;28;19949;-69
2023/06/24 11:00:36;;;;;;;;;;;33.70;99.90;;;;;;5081720;28;19913;-70
2023/06/24 11:03:15;;;;;;;;;;;33.70;99.90;;;;;;5086763;28;19928;-68
2023/06/24 11:05:41;;;;;;;;;;;33.70;99.90;;;;;;5082944;28;19935;-71
2023/06/24 11:08:08;;;;;;;;;;;33.70;99.90;;;;;;5092681;28;20446;-68
2023/06/24 11:10:42;;;;;;;;;;;33.60;99.90;;;;;;5093888;28;20474;-69
2023/06/24 11:13:08;;;;;;;;;;;33.70;99.90;;;;;;5094021;28;19965;-70
2023/06/24 11:15:34;;;;;;;;;;;33.60;99.90;;;;;;5093993;28;19929;-71
2023/06/24 11:18:04;;;;;;;;;;;33.60;99.90;;;;;;5093906;28;19946;-70
2023/06/24 11:20:30;;;;;;;;;;;33.60;99.90;;;;;;5094042;28;19919;-71
2023/06/24 11:22:56;;;;;;;;;;;33.60;99.90;;;;;;5093927;28;20010;-70
2023/06/24 11:25:22;;;;;;;;;;;33.50;99.90;;;;;;5093813;28;19955;-70
2023/06/24 11:27:54;;;;;;;;;;;33.60;99.90;;;;;;5094091;28;20126;-70
2023/06/24 11:30:20;;;;;;;;;;;33.60;99.90;;;;;;5093571;28;20052;-70
2023/06/24 11:32:48;;;;;;;;;;;33.60;99.90;;;;;;5093696;28;19989;-70
2023/06/24 11:35:17;;;;;;;;;;;33.60;99.90;;;;;;5093808;28;20386;-70
2023/06/24 11:37:45;;;;;;;;;;;33.50;99.90;;;;;;5093775;28;19908;-70
2023/06/24 11:40:12;;;;;;;;;;;33.40;99.90;;;;;;5093696;28;19978;-69
2023/06/24 11:42:40;;;;;;;;;;;33.40;99.90;;;;;;5093915;28;19923;-69
2023/06/24 11:45:07;;;;;;;;;;;33.30;99.90;;;;;;5093652;28;19908;-69
2023/06/24 11:47:36;;;;;;;;;;;33.30;99.90;;;;;;5093534;28;19915;-69
2023/06/24 11:50:04;;;;;;;;;;;33.30;99.90;;;;;;5093641;28;19912;-69
2023/06/24 11:52:38;;;;;;;;;;;33.30;99.90;;;;;;5093826;28;19908;-69
2023/06/24 11:55:04;;;;;;;;;;;33.20;99.90;;;;;;5093505;28;19908;-69
2023/06/24 11:57:48;;;;;;;;;;;33.20;99.90;;;;;;5093563;28;19955;-69
2023/06/24 12:00:15;;;;;;;;;;;33.10;99.90;;;;;;5093535;28;19915;-71
2023/06/24 12:02:41;;;;;;;;;;;33.10;99.90;;;;;;5092398;28;19908;-69
2023/06/24 12:05:07;;;;;;;;;;;33.00;99.90;;;;;;5093467;28;19948;-69
2023/06/24 12:07:34;;;;;;;;;;;33.00;99.90;;;;;;5093316;28;20279;-69
2023/06/24 12:10:00;;;;;;;;;;;32.90;99.90;;;;;;5093444;28;19946;-68
2023/06/24 12:12:26;;;;;;;;;;;32.90;99.90;;;;;;5093573;28;19915;-69
2023/06/24 12:14:52;;;;;;;;;;;32.80;99.90;;;;;;5093382;28;19908;-69
2023/06/24 12:17:18;;;;;;;;;;;32.80;99.90;;;;;;5096607;28;19927;-69
2023/06/24 12:19:45;;;;;;;;;;;32.80;99.90;;;;;;5097361;28;19951;-69
2023/06/24 12:22:11;;;;;;;;;;;32.80;99.90;;;;;;5097109;28;20002;-68
2023/06/24 12:24:37;;;;;;;;;;;32.70;99.90;;;;;;5097095;28;19912;-69
2023/06/24 12:27:03;;;;;;;;;;;32.60;99.90;;;;;;5097027;28;20428;-69
2023/06/24 12:29:29;;;;;;;;;;;32.60;99.90;;;;;;5096634;28;20288;-69
2023/06/24 12:31:55;;;;;;;;;;;32.50;99.90;;;;;;5096849;28;19994;-69
2023/06/24 12:34:22;;;;;;;;;;;32.50;99.90;;;;;;5096873;28;20382;-69
2023/06/24 12:36:48;;;;;;;;;;;32.50;99.90;;;;;;5097024;28;19908;-68
2023/06/24 12:39:14;;;;;;;;;;;32.50;99.90;;;;;;5090122;28;19946;-69
2023/06/24 12:41:40;;;;;;;;;;;32.40;99.90;;;;;;5096754;28;19908;-68
2023/06/24 12:44:06;;;;;;;;;;;32.40;99.90;;;;;;5096617;28;19952;-69
2023/06/24 12:46:32;;;;;;;;;;;32.30;99.90;;;;;;5096616;28;19911;-70
2023/06/24 12:48:58;;;;;;;;;;;32.30;99.90;;;;;;5081500;28;19909;-69
2023/06/24 12:51:24;;;;;;;;;;;32.20;99.90;;;;;;5076476;28;20403;-69
2023/06/24 12:53:50;;;;;;;;;;;32.20;99.90;;;;;;5076209;28;20011;-69
2023/06/24 12:56:16;;;;;;;;;;;32.10;99.90;;;;;;5076174;28;20009;-68
2023/06/24 12:58:43;;;;;;;;;;;32.10;99.90;;;;;;5076246;28;19909;-69
2023/06/24 13:01:09;;;;;;;;;;;32.00;99.90;;;;;;5076104;28;19979;-68
2023/06/24 13:03:35;;;;;;;;;;;32.00;99.90;;;;;;5076164;28;19948;-69
2023/06/24 13:06:01;;;;;;;;;;;32.00;99.90;;;;;;5076158;28;19916;-69
2023/06/24 13:08:27;;;;;;;;;;;31.90;99.90;;;;;;5076146;28;19987;-69
2023/06/24 13:10:53;;;;;;;;;;;31.90;99.90;;;;;;5075814;28;20038;-69
2023/06/24 13:13:19;;;;;;;;;;;32.00;99.90;;;;;;5076100;28;20421;-68
2023/06/24 13:15:45;;;;;;;;;;;31.90;99.90;;;;;;5075998;28;19908;-68
2023/06/24 13:18:11;;;;;;;;;;;32.00;99.90;;;;;;5075793;28;19920;-68
2023/06/24 13:20:37;;;;;;;;;;;32.00;99.90;;;;;;5075930;28;19963;-66
2023/06/24 13:23:04;;;;;;;;;;;32.00;99.90;;;;;;5075817;28;19908;-68
2023/06/24 13:25:30;;;;;;;;;;;32.00;99.90;;;;;;5075766;28;19912;-63
2023/06/24 13:27:57;;;;;;;;;;;32.00;99.90;;;;;;5083984;28;19920;-66
2023/06/24 13:30:24;;;;;;;;;;;31.90;99.90;;;;;;5080413;28;19920;-66
2023/06/24 13:32:50;;;;;;;;;;;31.80;99.90;;;;;;5084159;28;19963;-65
2023/06/24 13:35:16;;;;;;;;;;;31.80;99.90;;;;;;5075554;28;19909;-67
2023/06/24 13:37:43;;;;;;;;;;;31.80;99.90;;;;;;5075387;28;20342;-66
2023/06/24 13:40:10;;;;;;;;;;;31.60;99.90;;;;;;5074771;28;19913;-66
2023/06/24 13:42:36;;;;;;;;;;;31.60;99.90;;;;;;5075413;28;19920;-67
2023/06/24 13:45:02;;;;;;;;;;;31.50;99.90;;;;;;5083054;28;20033;-66
2023/06/24 13:47:28;;;;;;;;;;;31.50;99.90;;;;;;5084942;28;19948;-68
2023/06/24 13:49:54;;;;;;;;;;;31.50;99.90;;;;;;5074530;28;19920;-66
2023/06/24 13:52:21;;;;;;;;;;;31.40;99.90;;;;;;5076403;28;19912;-66
2023/06/24 13:54:47;;;;;;;;;;;31.40;99.90;;;;;;5085013;28;19912;-66
2023/06/24 13:57:13;;;;;;;;;;;31.30;99.90;;;;;;5091441;28;20388;-65
2023/06/24 13:59:39;;;;;;;;;;;31.30;99.90;;;;;;5108650;28;19908;-67
2023/06/24 14:02:07;;;;;;;;;;;31.20;99.90;;;;;;5111703;28;19987;-67
2023/06/24 14:04:33;;;;;;;;;;;31.20;99.90;;;;;;5088123;28;19913;-66
2023/06/24 14:07:00;;;;;;;;;;;31.20;99.90;;;;;;5080553;28;19912;-66
2023/06/24 14:09:26;;;;;;;;;;;31.20;99.90;;;;;;5074879;28;20031;-67
2023/06/24 14:11:52;;;;;;;;;;;31.20;99.90;;;;;;5076438;28;20460;-66
2023/06/24 14:14:18;;;;;;;;;;;31.20;99.90;;;;;;5095208;28;19908;-66
2023/06/24 14:16:44;;;;;;;;;;;31.10;99.90;;;;;;5095044;28;19908;-66
2023/06/24 14:19:10;;;;;;;;;;;31.10;99.90;;;;;;5094986;28;19908;-66
2023/06/24 14:21:37;;;;;;;;;;;31.10;99.90;;;;;;5080002;28;19951;-66
2023/06/24 14:24:05;;;;;;;;;;;31.10;99.90;;;;;;5085309;28;19912;-66
2023/06/24 14:26:31;;;;;;;;;;;31.10;99.90;;;;;;5073516;28;20323;-67
2023/06/24 14:28:57;;;;;;;;;;;31.10;99.90;;;;;;5088970;28;19912;-66
2023/06/24 14:31:23;;;;;;;;;;;31.10;99.90;;;;;;5094168;28;19919;-66
2023/06/24 14:33:52;;;;;;;;;;;31.10;99.90;;;;;;5074688;28;20294;-67
2023/06/24 14:36:18;;;;;;;;;;;31.10;99.90;;;;;;5079396;28;20311;-65
2023/06/24 14:38:44;;;;;;;;;;;31.10;99.90;;;;;;5085011;28;19919;-66
2023/06/24 14:41:11;;;;;;;;;;;31.00;99.90;;;;;;5092970;28;19912;-62
2023/06/24 14:43:37;;;;;;;;;;;31.10;99.90;;;;;;5091826;28;19946;-67
2023/06/24 14:46:03;;;;;;;;;;;31.00;99.90;;;;;;5074182;28;19928;-65
2023/06/24 14:48:29;;;;;;;;;;;31.00;99.90;;;;;;5083884;28;19950;-65
2023/06/24 14:50:55;;;;;;;;;;;31.00;99.90;;;;;;5083959;28;19954;-67
2023/06/24 14:53:21;;;;;;;;;;;31.00;99.90;;;;;;5089074;28;19950;-66
2023/06/24 14:55:47;;;;;;;;;;;31.00;99.90;;;;;;5093542;28;19942;-67
2023/06/24 14:58:13;;;;;;;;;;;30.90;99.90;;;;;;5093328;28;19948;-67
2023/06/24 15:00:40;;;;;;;;;;;30.90;99.90;;;;;;5085127;28;20003;-65
2023/06/24 15:03:07;;;;;;;;;;;30.90;99.90;;;;;;5073020;28;20328;-67
2023/06/24 15:05:34;;;;;;;;;;;30.90;99.90;;;;;;5078190;28;20419;-67
2023/06/24 15:08:00;;;;;;;;;;;30.80;99.90;;;;;;5093416;28;19912;-66
2023/06/24 15:10:26;;;;;;;;;;;30.80;99.90;;;;;;5084186;28;20007;-67
2023/06/24 15:12:52;;;;;;;;;;;30.80;99.90;;;;;;5072985;28;19912;-67
2023/06/24 15:15:18;;;;;;;;;;;30.70;99.90;;;;;;5073082;28;19920;-68
2023/06/24 15:17:45;;;;;;;;;;;30.70;99.90;;;;;;5073734;28;19917;-68
2023/06/24 15:20:11;;;;;;;;;;;30.60;99.90;;;;;;5088210;28;20358;-66
2023/06/24 15:22:38;;;;;;;;;;;30.70;99.90;;;;;;5093092;28;19908;-67
2023/06/24 15:25:05;;;;;;;;;;;30.70;99.90;;;;;;5093187;28;19912;-67
2023/06/24 15:27:31;;;;;;;;;;;30.70;99.90;;;;;;5093014;28;19965;-66
2023/06/24 15:29:57;;;;;;;;;;;30.70;99.90;;;;;;5092885;28;19916;-67
2023/06/24 15:32:23;;;;;;;;;;;30.70;99.90;;;;;;5093077;28;20303;-66
2023/06/24 15:34:49;;;;;;;;;;;30.70;99.90;;;;;;5091495;28;19942;-66
2023/06/24 15:37:15;;;;;;;;;;;30.70;99.90;;;;;;5092872;28;20787;-66
2023/06/24 15:39:41;;;;;;;;;;;30.60;99.90;;;;;;5092840;28;19915;-66
2023/06/24 15:42:08;;;;;;;;;;;30.60;99.90;;;;;;5092958;28;20378;-67
2023/06/24 15:44:34;;;;;;;;;;;30.60;99.90;;;;;;5093073;28;19960;-68
2023/06/24 15:47:00;;;;;;;;;;;30.60;99.90;;;;;;5093242;28;19922;-67
2023/06/24 15:49:27;;;;;;;;;;;30.60;99.90;;;;;;5090781;28;19951;-67
2023/06/24 15:51:53;;;;;;;;;;;30.50;99.90;;;;;;5086987;28;20301;-67
2023/06/24 15:54:19;;;;;;;;;;;30.40;99.90;;;;;;5076846;28;19923;-67
2023/06/24 15:56:45;;;;;;;;;;;30.40;99.90;;;;;;5076808;28;19953;-67
2023/06/24 15:59:12;;;;;;;;;;;30.50;99.90;;;;;;5085959;28;19954;-67
2023/06/24 16:01:38;;;;;;;;;;;30.50;99.90;;;;;;5096803;28;20345;-67
2023/06/24 16:04:04;;;;;;;;;;;30.50;99.90;;;;;;5096870;28;20191;-67
2023/06/24 16:06:30;;;;;;;;;;;30.40;99.90;;;;;;5096724;28;19912;-66
2023/06/24 16:08:56;;;;;;;;;;;30.40;99.90;;;;;;5087846;28;19932;-66
2023/06/24 16:11:23;;;;;;;;;;;30.40;99.90;;;;;;5076205;28;20382;-67
2023/06/24 16:13:49;;;;;;;;;;;30.30;99.90;;;;;;5075956;28;19993;-66
2023/06/24 16:16:16;;;;;;;;;;;30.40;99.90;;;;;;5076294;28;19913;-66
2023/06/24 16:18:42;;;;;;;;;;;30.40;99.90;;;;;;5076347;28;19948;-66
2023/06/24 16:21:08;;;;;;;;;;;30.30;99.90;;;;;;5076183;28;19962;-65
2023/06/24 16:23:34;;;;;;;;;;;30.30;99.90;;;;;;5076206;28;19913;-66
2023/06/24 16:26:01;;;;;;;;;;;30.30;99.90;;;;;;5075466;28;20342;-66